map of KBIV home
KBIV - Airport
Location
City:  Holland, Michigan, United States
Name:West Michigan Regional
ICAO:KBIV
FAA LID:BIV

Details
Type:Airport (Airfield)
Use:Public/Civil
Latitude:4244'34"N (42.742778)
Longitude:8606'28"W (-86.107832)
Datum:WGS 1984
Elevation:697 ft (212 m)
Variation:5.33W (WMM2015 magnetic declination)
-0.04 annual change
Runways:1
Longest:6002 × 100 ft (1829 × 30.5 m), paved

Time
Time Zone:UTC-5 (DST-4)
Local Time:

Weather
METAR:KBIV 191929Z AUTO 25013KT 10SM BKN023 OVC100 03/M02 A3000 RMK AO2 T00331022

Related Locations
Nearby:
Farthest:YAUG: 11155 mi / 17952 km
Augusta [Augusta Airport], WA, AU

Find:

   beyond  
but within

Other Information
Maps:
NOTAMs:
Links:
Sources:

  
  • flag of United States
  • flag of Michigan
  

Sectional Chart

Flight Planning
at skyvector.com

Satellite Image

Google Maps Satellite view

 

Copyright © 2004-2018 Karl L. Swartz. All rights reserved.
The Great Circle Mapper name and logo are trademarks of the Great Circle Mapper.
All other trademarks mentioned herein belong to their respective owners.
Please see credits for attibutions and further copyright information.

  Follow gcmap on Facebook Follow gcmap on Twitter Follow gcmap on Google+ GCmap on LinkedIn

hCard Microformat

Geo Microformat